Goliah — WDD5908 — position and weather

sailwx.info

Track history (hours):
 
Tides and Currents Weather Stations Pressure Air Temp Water Temp Dewpoint Dewpoint Depression Visibility Wind Speed Wind Dir Waves Ship Positions

Goliah

More information available from US FCC via Universal Licensing System and Coast Guard Vessel Documentation Center.

Last reported at 2014-Aug-28 22:32 UTC. Time now 2014-Aug-28 23:16 UTC.
Position N 47°15' W 122°26'.

Length 33 m; draft 4.8 m.

Type: Tug. MMSI: 366898250.

Date/timePositionNaut miles runAvg speedWind from/ knotsBaromVisibWave heightAir tempDewpointWater temp
2014-Aug-28 22:32N 47°15' W 122°26'0 0.0
2014-Aug-28 21:33N 47°15' W 122°26'0 0.0
2014-Aug-28 20:33N 47°15' W 122°26'1 1.4
2014-Aug-28 19:33N 47°17' W 122°25'1 0.6
2014-Aug-28 18:33N 47°17' W 122°25'1 1.4
2014-Aug-28 17:33N 47°18' W 122°26'0 0.0
2014-Aug-28 16:30N 47°18' W 122°26'0 0.0
2014-Aug-28 15:33N 47°18' W 122°26'0 0.0
2014-Aug-28 14:33N 47°18' W 122°26'1 1.2
2014-Aug-28 13:33N 47°17' W 122°25'1 0.8
2014-Aug-28 12:33N 47°16' W 122°24'2 1.9
2014-Aug-28 11:33N 47°18' W 122°26'0 0.0
2014-Aug-28 10:33N 47°18' W 122°26'1 1.4
2014-Aug-28 09:33N 47°16' W 122°25'1 1.4
2014-Aug-28 08:32N 47°18' W 122°26'0 0.0
2014-Aug-28 07:33N 47°18' W 122°26'0 0.0
2014-Aug-28 06:31N 47°18' W 122°26'0 0.0
2014-Aug-28 05:33N 47°18' W 122°26'0 0.0
2014-Aug-28 04:33N 47°18' W 122°26'3 3.1
2014-Aug-28 03:33N 47°21' W 122°26'8 7.8
2014-Aug-28 02:33N 47°28' W 122°23'8 7.6
2014-Aug-28 01:33N 47°36' W 122°23'2 1.7
2014-Aug-28 00:33N 47°35' W 122°21'0 0.1
2014-Aug-27 23:34N 47°35' W 122°21'3 2.8
2014-Aug-27 22:33N 47°35' W 122°25'7 7.3
2014-Aug-27 21:33N 47°28' W 122°24'7 6.8
2014-Aug-27 20:33N 47°21' W 122°24'5 5.1
2014-Aug-27 19:33N 47°16' W 122°24'1 0.9
2014-Aug-27 18:33N 47°15' W 122°23'3 3.1
2014-Aug-27 17:33N 47°18' W 122°26'0 0.0
2014-Aug-27 16:33N 47°18' W 122°26'0 0.0
2014-Aug-27 15:30N 47°18' W 122°26'0 0.0
2014-Aug-27 14:33N 47°18' W 122°26'0 0.0
2014-Aug-27 13:33N 47°18' W 122°26'0 0.0
2014-Aug-27 12:33N 47°18' W 122°26'1 1.5
2014-Aug-27 11:33N 47°16' W 122°24'0 0.1
2014-Aug-27 10:33N 47°16' W 122°24'0 0.5
2014-Aug-27 09:33N 47°16' W 122°25'4 4.0
2014-Aug-27 08:33N 47°20' W 122°28'7 7.4
2014-Aug-27 07:33N 47°27' W 122°24'8 8.2
2014-Aug-27 06:33N 47°35' W 122°26'3 3.3
2014-Aug-27 05:33N 47°35' W 122°21'0 0.0
2014-Aug-27 04:33N 47°35' W 122°21'0 0.0
2014-Aug-27 03:33N 47°35' W 122°21'0 0.0
2014-Aug-27 02:33N 47°35' W 122°21'0 0.0
2014-Aug-27 01:33N 47°35' W 122°21'0 0.0
2014-Aug-27 00:33N 47°35' W 122°21'0 0.0
2014-Aug-26 23:33N 47°35' W 122°21'0 0.0
2014-Aug-26 22:33N 47°35' W 122°21'0 0.0
2014-Aug-26 21:33N 47°35' W 122°21'0 0.0
2014-Aug-26 20:33N 47°35' W 122°21'0 0.0
2014-Aug-26 19:33N 47°35' W 122°21'0 0.0
2014-Aug-26 18:33N 47°35' W 122°21'0 0.0
2014-Aug-26 17:33N 47°35' W 122°21'0 0.0
2014-Aug-26 16:33N 47°35' W 122°21'0 0.0
2014-Aug-26 15:33N 47°35' W 122°21'0 0.0
2014-Aug-26 14:33N 47°35' W 122°21'0 0.0
2014-Aug-26 13:33N 47°35' W 122°21'0 0.0
2014-Aug-26 12:33N 47°35' W 122°21'0 0.3
2014-Aug-26 11:33N 47°35' W 122°21'1 0.8
2014-Aug-26 10:33N 47°36' W 122°22'1 0.6
2014-Aug-26 09:33N 47°35' W 122°21'0 0.0
2014-Aug-26 08:33N 47°35' W 122°21'0 0.0
2014-Aug-26 07:33N 47°35' W 122°21'0 0.0
2014-Aug-26 06:33N 47°35' W 122°21'0 0.0
2014-Aug-26 05:33N 47°35' W 122°21'0 0.0
2014-Aug-26 04:33N 47°35' W 122°21'4 4.1
2014-Aug-26 03:33N 47°38' W 122°25'9 9.0
2014-Aug-26 02:33N 47°47' W 122°27'10 9.5
2014-Aug-26 01:33N 47°56' W 122°32'13 9.2
2014-Aug-26 00:06N 48°07' W 122°42'711.3
2014-Aug-25 23:27N 48°12' W 122°51'11 9.7
2014-Aug-25 22:22N 48°17' W 123°05'910.3
2014-Aug-25 21:32N 48°22' W 122°55'1210.5
2014-Aug-25 20:26N 48°30' W 122°43'5 6.0
2014-Aug-25 19:33N 48°31' W 122°35'0 0.0
2014-Aug-25 18:33N 48°31' W 122°35'2 1.5
2014-Aug-25 17:33N 48°31' W 122°37'0 0.0
2014-Aug-25 16:33N 48°31' W 122°37'0 0.0
2014-Aug-25 15:33N 48°31' W 122°37'0 0.0
2014-Aug-25 14:33N 48°31' W 122°37'1 0.6
2014-Aug-25 13:33N 48°31' W 122°36'2 1.5
2014-Aug-25 12:33N 48°31' W 122°34'3 3.5
2014-Aug-25 11:33N 48°31' W 122°39'2 1.5
2014-Aug-25 10:33N 48°31' W 122°37'0 0.0
2014-Aug-25 09:33N 48°31' W 122°37'0 0.0
2014-Aug-25 08:33N 48°31' W 122°37'0 0.4
2014-Aug-25 07:33N 48°31' W 122°36'0 0.4
2014-Aug-25 06:33N 48°31' W 122°37'0 0.0
2014-Aug-25 05:33N 48°31' W 122°37'0 0.0
2014-Aug-25 04:33N 48°31' W 122°37'0 0.0
2014-Aug-25 03:33N 48°31' W 122°37'0 0.0
2014-Aug-25 02:33N 48°31' W 122°37'0 0.0
2014-Aug-25 01:33N 48°31' W 122°37'0 0.0
2014-Aug-25 00:33N 48°31' W 122°37'0 0.0
2014-Aug-24 23:33N 48°31' W 122°37'2 2.0
2014-Aug-24 22:33N 48°31' W 122°34'0 0.1
2014-Aug-24 21:33N 48°31' W 122°34'2 2.0
2014-Aug-24 20:33N 48°31' W 122°37'2 1.6
2014-Aug-24 19:33N 48°31' W 122°35'0 0.4
2014-Aug-24 18:33N 48°31' W 122°35'1 1.2
2014-Aug-24 17:33N 48°31' W 122°37'0 0.2
2014-Aug-24 16:33N 48°31' W 122°37'1 0.6
2014-Aug-24 15:33N 48°31' W 122°38'5 5.0
2014-Aug-24 14:33N 48°28' W 122°43'16 6.8
2014-Aug-24 12:14N 48°12' W 122°47'13 7.5
2014-Aug-24 10:31N 48°01' W 122°37'7 6.8
2014-Aug-24 09:33N 47°56' W 122°31'7 7.5
2014-Aug-24 08:33N 47°49' W 122°27'8 7.7
2014-Aug-24 07:33N 47°42' W 122°27'7 7.0
2014-Aug-24 06:33N 47°36' W 122°21'1 0.6
2014-Aug-24 05:33N 47°35' W 122°21'0 0.2
2014-Aug-24 04:29N 47°35' W 122°21'0 0.0
2014-Aug-24 03:27N 47°35' W 122°21'0 0.0
2014-Aug-24 02:33N 47°35' W 122°21'0 0.0
2014-Aug-24 01:33N 47°35' W 122°21'0 0.0
2014-Aug-24 00:33N 47°35' W 122°21'0 0.3
2014-Aug-23 23:33N 47°36' W 122°21'0 0.3
2014-Aug-23 22:33N 47°35' W 122°21'0 0.0
2014-Aug-23 21:33N 47°35' W 122°21'0 0.0
2014-Aug-23 20:33N 47°35' W 122°21'0 0.0
2014-Aug-23 19:33N 47°35' W 122°21'0 0.0
2014-Aug-23 03:23N 47°35' W 122°21'0 0.0
2014-Aug-23 02:33N 47°35' W 122°21'0 0.0
2014-Aug-23 01:24N 47°35' W 122°21'3 3.9
2014-Aug-23 00:33N 47°34' W 122°25'4 3.6
2014-Aug-22 23:33N 47°36' W 122°21'1 0.9
2014-Aug-22 22:30N 47°36' W 122°22'1 0.8
2014-Aug-22 21:32N 47°35' W 122°21'0 0.0
2014-Aug-22 20:28N 47°35' W 122°21'0 0.0
2014-Aug-22 19:32N 47°35' W 122°21'0 0.0
2014-Aug-22 18:33N 47°35' W 122°21'0 0.0
2014-Aug-22 17:33N 47°35' W 122°21'0 0.0
2014-Aug-22 16:33N 47°35' W 122°21'0 0.4
2014-Aug-22 15:33N 47°35' W 122°21'3 2.9
2014-Aug-22 14:29N 47°35' W 122°25'1112.3
2014-Aug-22 13:33N 47°24' W 122°21'8 7.6
2014-Aug-22 12:33N 47°17' W 122°25'2 1.5
2014-Aug-22 11:31N 47°16' W 122°23'1 1.2
2014-Aug-22 10:33N 47°16' W 122°24'2 1.7
2014-Aug-22 09:33N 47°15' W 122°23'0 0.3
2014-Aug-22 08:33N 47°16' W 122°23'0 0.3
2014-Aug-22 07:31N 47°15' W 122°23'3 3.0
2014-Aug-22 06:33N 47°17' W 122°26'0 0.4
2014-Aug-22 05:33N 47°18' W 122°26'0 0.0
2014-Aug-22 04:33N 47°18' W 122°26'0 0.0
2014-Aug-22 03:32N 47°18' W 122°26'0 0.0
2014-Aug-22 02:32N 47°18' W 122°26'0 0.0
2014-Aug-22 01:32N 47°18' W 122°26'0 0.0
2014-Aug-22 00:33N 47°18' W 122°26'0 0.0
2014-Aug-21 23:31N 47°18' W 122°26'0 0.0
2014-Aug-21 22:32N 47°18' W 122°26'0 0.0
2014-Aug-21 21:32N 47°18' W 122°26'1 1.5
2014-Aug-21 20:33N 47°16' W 122°25'1 1.5
2014-Aug-21 19:33N 47°18' W 122°26'0 0.2
2014-Aug-21 18:33N 47°18' W 122°26'0 0.0
2014-Aug-21 17:33N 47°18' W 122°26'0 0.0
2014-Aug-21 16:33N 47°18' W 122°26'0 0.0
2014-Aug-21 15:29N 47°18' W 122°26'1 1.3
2014-Aug-21 14:33N 47°17' W 122°25'2 1.5
2014-Aug-21 13:33N 47°16' W 122°23'3 2.8
2014-Aug-21 12:32N 47°18' W 122°26'2 1.7
2014-Aug-21 11:33N 47°16' W 122°24'1 0.8
2014-Aug-21 10:32N 47°16' W 122°24'2 2.4
2014-Aug-21 09:33N 47°17' W 122°26'1 1.0
2014-Aug-21 08:33N 47°17' W 122°25'1 0.9
2014-Aug-21 07:28N 47°18' W 122°26'5 5.5
2014-Aug-21 06:33N 47°22' W 122°23'9 9.4
2014-Aug-21 05:33N 47°31' W 122°26'5 5.3
2014-Aug-21 04:33N 47°35' W 122°21'0 0.0
2014-Aug-21 03:33N 47°35' W 122°21'0 0.0
2014-Aug-21 02:33N 47°35' W 122°21'0 0.0
2014-Aug-21 01:33N 47°35' W 122°21'0 0.0
2014-Aug-21 00:33N 47°35' W 122°21'0 0.4
2014-Aug-20 23:33N 47°35' W 122°21'0 0.1
2014-Aug-20 22:33N 47°35' W 122°21'3 2.8
2014-Aug-20 21:33N 47°35' W 122°25'10 9.6
2014-Aug-20 20:33N 47°26' W 122°23'8 8.3
2014-Aug-20 19:33N 47°18' W 122°27'1 0.8
2014-Aug-20 18:33N 47°18' W 122°26'0 0.0
2014-Aug-20 17:30N 47°18' W 122°26'0 0.0
2014-Aug-20 16:32N 47°18' W 122°26'0 0.0
2014-Aug-20 15:28N 47°18' W 122°26'0 0.0
2014-Aug-20 14:30N 47°18' W 122°26'1 1.6
2014-Aug-20 13:33N 47°16' W 122°25'1 0.8
2014-Aug-20 12:33N 47°16' W 122°24'3 2.7
2014-Aug-20 11:33N 47°18' W 122°27'7 6.8
2014-Aug-20 10:33N 47°24' W 122°23'10 9.6
2014-Aug-20 09:33N 47°33' W 122°27'4 4.4
2014-Aug-20 08:33N 47°35' W 122°21'0 0.0
2014-Aug-20 07:33N 47°35' W 122°21'0 0.0
2014-Aug-20 06:33N 47°35' W 122°21'0 0.0
2014-Aug-20 05:33N 47°35' W 122°21'0 0.0
2014-Aug-20 04:33N 47°35' W 122°21'0 0.0
2014-Aug-20 03:33N 47°35' W 122°21'0 0.0
2014-Aug-20 02:32N 47°35' W 122°21'0 0.0
2014-Aug-20 01:33N 47°35' W 122°21'0 0.0
2014-Aug-20 00:33N 47°35' W 122°21'0 0.0
2014-Aug-19 23:33N 47°35' W 122°21'0 0.0
2014-Aug-19 22:33N 47°35' W 122°21'0 0.0
2014-Aug-19 21:33N 47°35' W 122°21'0 0.0
2014-Aug-19 20:33N 47°35' W 122°21'0 0.0
2014-Aug-19 19:33N 47°35' W 122°21'0 0.0
2014-Aug-19 18:33N 47°35' W 122°21'0 0.0
2014-Aug-19 17:33N 47°35' W 122°21'0 0.0
2014-Aug-19 16:33N 47°35' W 122°21'0 0.0
2014-Aug-19 15:33N 47°35' W 122°21'0 0.0
2014-Aug-19 14:33N 47°35' W 122°21'1 0.5
2014-Aug-19 13:33N 47°35' W 122°21'2 1.7
2014-Aug-19 12:33N 47°37' W 122°22'8 8.1
2014-Aug-19 11:33N 47°29' W 122°24'1010.0
2014-Aug-19 10:33N 47°19' W 122°27'4 3.9
2014-Aug-19 09:33N 47°16' W 122°23'0 0.1
2014-Aug-19 08:33N 47°16' W 122°23'0 0.0
2014-Aug-19 07:33N 47°16' W 122°23'0 0.0
2014-Aug-19 06:33N 47°16' W 122°23'0 0.0
2014-Aug-19 05:33N 47°16' W 122°23'0 0.0
2014-Aug-19 04:33N 47°16' W 122°23'1 1.1
2014-Aug-19 03:33N 47°16' W 122°24'0 0.4
2014-Aug-19 02:31N 47°16' W 122°24'0 0.4
2014-Aug-19 01:33N 47°16' W 122°23'1 0.6
2014-Aug-19 00:30N 47°16' W 122°24'2 1.9
2014-Aug-18 23:33N 47°18' W 122°26'0 0.0
2014-Aug-18 22:33N 47°18' W 122°26'  
Track history (hours):
 
Tides and Currents Weather Stations Pressure Air Temp Water Temp Dewpoint Dewpoint Depression Visibility Wind Speed Wind Dir Waves Ship Positions

Goliah

More information available from US FCC via Universal Licensing System and Coast Guard Vessel Documentation Center.

Last reported at 2014-Aug-28 22:32 UTC. Time now 2014-Aug-28 23:16 UTC.
Position N 47°15' W 122°26'.

Length 33 m; draft 4.8 m.

Type: Tug. MMSI: 366898250.

Date/timePositionNaut miles runAvg speedWind from/ knotsBaromVisibWave heightAir tempDewpointWater temp
2014-Aug-28 22:32N 47°15' W 122°26'0 0.0
2014-Aug-28 21:33N 47°15' W 122°26'0 0.0
2014-Aug-28 20:33N 47°15' W 122°26'1 1.4
2014-Aug-28 19:33N 47°17' W 122°25'1 0.6
2014-Aug-28 18:33N 47°17' W 122°25'1 1.4
2014-Aug-28 17:33N 47°18' W 122°26'0 0.0
2014-Aug-28 16:30N 47°18' W 122°26'0 0.0
2014-Aug-28 15:33N 47°18' W 122°26'0 0.0
2014-Aug-28 14:33N 47°18' W 122°26'1 1.2
2014-Aug-28 13:33N 47°17' W 122°25'1 0.8
2014-Aug-28 12:33N 47°16' W 122°24'2 1.9
2014-Aug-28 11:33N 47°18' W 122°26'0 0.0
2014-Aug-28 10:33N 47°18' W 122°26'1 1.4
2014-Aug-28 09:33N 47°16' W 122°25'1 1.4
2014-Aug-28 08:32N 47°18' W 122°26'0 0.0
2014-Aug-28 07:33N 47°18' W 122°26'0 0.0
2014-Aug-28 06:31N 47°18' W 122°26'0 0.0
2014-Aug-28 05:33N 47°18' W 122°26'0 0.0
2014-Aug-28 04:33N 47°18' W 122°26'3 3.1
2014-Aug-28 03:33N 47°21' W 122°26'8 7.8
2014-Aug-28 02:33N 47°28' W 122°23'8 7.6
2014-Aug-28 01:33N 47°36' W 122°23'2 1.7
2014-Aug-28 00:33N 47°35' W 122°21'0 0.1
2014-Aug-27 23:34N 47°35' W 122°21'3 2.8
2014-Aug-27 22:33N 47°35' W 122°25'7 7.3
2014-Aug-27 21:33N 47°28' W 122°24'7 6.8
2014-Aug-27 20:33N 47°21' W 122°24'5 5.1
2014-Aug-27 19:33N 47°16' W 122°24'1 0.9
2014-Aug-27 18:33N 47°15' W 122°23'3 3.1
2014-Aug-27 17:33N 47°18' W 122°26'0 0.0
2014-Aug-27 16:33N 47°18' W 122°26'0 0.0
2014-Aug-27 15:30N 47°18' W 122°26'0 0.0
2014-Aug-27 14:33N 47°18' W 122°26'0 0.0
2014-Aug-27 13:33N 47°18' W 122°26'0 0.0
2014-Aug-27 12:33N 47°18' W 122°26'1 1.5
2014-Aug-27 11:33N 47°16' W 122°24'0 0.1
2014-Aug-27 10:33N 47°16' W 122°24'0 0.5
2014-Aug-27 09:33N 47°16' W 122°25'4 4.0
2014-Aug-27 08:33N 47°20' W 122°28'7 7.4
2014-Aug-27 07:33N 47°27' W 122°24'8 8.2
2014-Aug-27 06:33N 47°35' W 122°26'3 3.3
2014-Aug-27 05:33N 47°35' W 122°21'0 0.0
2014-Aug-27 04:33N 47°35' W 122°21'0 0.0
2014-Aug-27 03:33N 47°35' W 122°21'0 0.0
2014-Aug-27 02:33N 47°35' W 122°21'0 0.0
2014-Aug-27 01:33N 47°35' W 122°21'0 0.0
2014-Aug-27 00:33N 47°35' W 122°21'0 0.0
2014-Aug-26 23:33N 47°35' W 122°21'0 0.0
2014-Aug-26 22:33N 47°35' W 122°21'0 0.0
2014-Aug-26 21:33N 47°35' W 122°21'0 0.0
2014-Aug-26 20:33N 47°35' W 122°21'0 0.0
2014-Aug-26 19:33N 47°35' W 122°21'0 0.0
2014-Aug-26 18:33N 47°35' W 122°21'0 0.0
2014-Aug-26 17:33N 47°35' W 122°21'0 0.0
2014-Aug-26 16:33N 47°35' W 122°21'0 0.0
2014-Aug-26 15:33N 47°35' W 122°21'0 0.0
2014-Aug-26 14:33N 47°35' W 122°21'0 0.0
2014-Aug-26 13:33N 47°35' W 122°21'0 0.0
2014-Aug-26 12:33N 47°35' W 122°21'0 0.3
2014-Aug-26 11:33N 47°35' W 122°21'1 0.8
2014-Aug-26 10:33N 47°36' W 122°22'1 0.6
2014-Aug-26 09:33N 47°35' W 122°21'0 0.0
2014-Aug-26 08:33N 47°35' W 122°21'0 0.0
2014-Aug-26 07:33N 47°35' W 122°21'0 0.0
2014-Aug-26 06:33N 47°35' W 122°21'0 0.0
2014-Aug-26 05:33N 47°35' W 122°21'0 0.0
2014-Aug-26 04:33N 47°35' W 122°21'4 4.1
2014-Aug-26 03:33N 47°38' W 122°25'9 9.0
2014-Aug-26 02:33N 47°47' W 122°27'10 9.5
2014-Aug-26 01:33N 47°56' W 122°32'13 9.2
2014-Aug-26 00:06N 48°07' W 122°42'711.3
2014-Aug-25 23:27N 48°12' W 122°51'11 9.7
2014-Aug-25 22:22N 48°17' W 123°05'910.3
2014-Aug-25 21:32N 48°22' W 122°55'1210.5
2014-Aug-25 20:26N 48°30' W 122°43'5 6.0
2014-Aug-25 19:33N 48°31' W 122°35'0 0.0
2014-Aug-25 18:33N 48°31' W 122°35'2 1.5
2014-Aug-25 17:33N 48°31' W 122°37'0 0.0
2014-Aug-25 16:33N 48°31' W 122°37'0 0.0
2014-Aug-25 15:33N 48°31' W 122°37'0 0.0
2014-Aug-25 14:33N 48°31' W 122°37'1 0.6
2014-Aug-25 13:33N 48°31' W 122°36'2 1.5
2014-Aug-25 12:33N 48°31' W 122°34'3 3.5
2014-Aug-25 11:33N 48°31' W 122°39'2 1.5
2014-Aug-25 10:33N 48°31' W 122°37'0 0.0
2014-Aug-25 09:33N 48°31' W 122°37'0 0.0
2014-Aug-25 08:33N 48°31' W 122°37'0 0.4
2014-Aug-25 07:33N 48°31' W 122°36'0 0.4
2014-Aug-25 06:33N 48°31' W 122°37'0 0.0
2014-Aug-25 05:33N 48°31' W 122°37'0 0.0
2014-Aug-25 04:33N 48°31' W 122°37'0 0.0
2014-Aug-25 03:33N 48°31' W 122°37'0 0.0
2014-Aug-25 02:33N 48°31' W 122°37'0 0.0
2014-Aug-25 01:33N 48°31' W 122°37'0 0.0
2014-Aug-25 00:33N 48°31' W 122°37'0 0.0
2014-Aug-24 23:33N 48°31' W 122°37'2 2.0
2014-Aug-24 22:33N 48°31' W 122°34'0 0.1
2014-Aug-24 21:33N 48°31' W 122°34'2 2.0
2014-Aug-24 20:33N 48°31' W 122°37'2 1.6
2014-Aug-24 19:33N 48°31' W 122°35'0 0.4
2014-Aug-24 18:33N 48°31' W 122°35'1 1.2
2014-Aug-24 17:33N 48°31' W 122°37'0 0.2
2014-Aug-24 16:33N 48°31' W 122°37'1 0.6
2014-Aug-24 15:33N 48°31' W 122°38'5 5.0
2014-Aug-24 14:33N 48°28' W 122°43'16 6.8
2014-Aug-24 12:14N 48°12' W 122°47'13 7.5
2014-Aug-24 10:31N 48°01' W 122°37'7 6.8
2014-Aug-24 09:33N 47°56' W 122°31'7 7.5
2014-Aug-24 08:33N 47°49' W 122°27'8 7.7
2014-Aug-24 07:33N 47°42' W 122°27'7 7.0
2014-Aug-24 06:33N 47°36' W 122°21'1 0.6
2014-Aug-24 05:33N 47°35' W 122°21'0 0.2
2014-Aug-24 04:29N 47°35' W 122°21'0 0.0
2014-Aug-24 03:27N 47°35' W 122°21'0 0.0
2014-Aug-24 02:33N 47°35' W 122°21'0 0.0
2014-Aug-24 01:33N 47°35' W 122°21'0 0.0
2014-Aug-24 00:33N 47°35' W 122°21'0 0.3
2014-Aug-23 23:33N 47°36' W 122°21'0 0.3
2014-Aug-23 22:33N 47°35' W 122°21'0 0.0
2014-Aug-23 21:33N 47°35' W 122°21'0 0.0
2014-Aug-23 20:33N 47°35' W 122°21'0 0.0
2014-Aug-23 19:33N 47°35' W 122°21'0 0.0
2014-Aug-23 03:23N 47°35' W 122°21'0 0.0
2014-Aug-23 02:33N 47°35' W 122°21'0 0.0
2014-Aug-23 01:24N 47°35' W 122°21'3 3.9
2014-Aug-23 00:33N 47°34' W 122°25'4 3.6
2014-Aug-22 23:33N 47°36' W 122°21'1 0.9
2014-Aug-22 22:30N 47°36' W 122°22'1 0.8
2014-Aug-22 21:32N 47°35' W 122°21'0 0.0
2014-Aug-22 20:28N 47°35' W 122°21'0 0.0
2014-Aug-22 19:32N 47°35' W 122°21'0 0.0
2014-Aug-22 18:33N 47°35' W 122°21'0 0.0
2014-Aug-22 17:33N 47°35' W 122°21'0 0.0
2014-Aug-22 16:33N 47°35' W 122°21'0 0.4
2014-Aug-22 15:33N 47°35' W 122°21'3 2.9
2014-Aug-22 14:29N 47°35' W 122°25'1112.3
2014-Aug-22 13:33N 47°24' W 122°21'8 7.6
2014-Aug-22 12:33N 47°17' W 122°25'2 1.5
2014-Aug-22 11:31N 47°16' W 122°23'1 1.2
2014-Aug-22 10:33N 47°16' W 122°24'2 1.7
2014-Aug-22 09:33N 47°15' W 122°23'0 0.3
2014-Aug-22 08:33N 47°16' W 122°23'0 0.3
2014-Aug-22 07:31N 47°15' W 122°23'3 3.0
2014-Aug-22 06:33N 47°17' W 122°26'0 0.4
2014-Aug-22 05:33N 47°18' W 122°26'0 0.0
2014-Aug-22 04:33N 47°18' W 122°26'0 0.0
2014-Aug-22 03:32N 47°18' W 122°26'0 0.0
2014-Aug-22 02:32N 47°18' W 122°26'0 0.0
2014-Aug-22 01:32N 47°18' W 122°26'0 0.0
2014-Aug-22 00:33N 47°18' W 122°26'0 0.0
2014-Aug-21 23:31N 47°18' W 122°26'0 0.0
2014-Aug-21 22:32N 47°18' W 122°26'0 0.0
2014-Aug-21 21:32N 47°18' W 122°26'1 1.5
2014-Aug-21 20:33N 47°16' W 122°25'1 1.5
2014-Aug-21 19:33N 47°18' W 122°26'0 0.2
2014-Aug-21 18:33N 47°18' W 122°26'0 0.0
2014-Aug-21 17:33N 47°18' W 122°26'0 0.0
2014-Aug-21 16:33N 47°18' W 122°26'0 0.0
2014-Aug-21 15:29N 47°18' W 122°26'1 1.3
2014-Aug-21 14:33N 47°17' W 122°25'2 1.5
2014-Aug-21 13:33N 47°16' W 122°23'3 2.8
2014-Aug-21 12:32N 47°18' W 122°26'2 1.7
2014-Aug-21 11:33N 47°16' W 122°24'1 0.8
2014-Aug-21 10:32N 47°16' W 122°24'2 2.4
2014-Aug-21 09:33N 47°17' W 122°26'1 1.0
2014-Aug-21 08:33N 47°17' W 122°25'1 0.9
2014-Aug-21 07:28N 47°18' W 122°26'5 5.5
2014-Aug-21 06:33N 47°22' W 122°23'9 9.4
2014-Aug-21 05:33N 47°31' W 122°26'5 5.3
2014-Aug-21 04:33N 47°35' W 122°21'0 0.0
2014-Aug-21 03:33N 47°35' W 122°21'0 0.0
2014-Aug-21 02:33N 47°35' W 122°21'0 0.0
2014-Aug-21 01:33N 47°35' W 122°21'0 0.0
2014-Aug-21 00:33N 47°35' W 122°21'0 0.4
2014-Aug-20 23:33N 47°35' W 122°21'0 0.1
2014-Aug-20 22:33N 47°35' W 122°21'3 2.8
2014-Aug-20 21:33N 47°35' W 122°25'10 9.6
2014-Aug-20 20:33N 47°26' W 122°23'8 8.3
2014-Aug-20 19:33N 47°18' W 122°27'1 0.8
2014-Aug-20 18:33N 47°18' W 122°26'0 0.0
2014-Aug-20 17:30N 47°18' W 122°26'0 0.0
2014-Aug-20 16:32N 47°18' W 122°26'0 0.0
2014-Aug-20 15:28N 47°18' W 122°26'0 0.0
2014-Aug-20 14:30N 47°18' W 122°26'1 1.6
2014-Aug-20 13:33N 47°16' W 122°25'1 0.8
2014-Aug-20 12:33N 47°16' W 122°24'3 2.7
2014-Aug-20 11:33N 47°18' W 122°27'7 6.8
2014-Aug-20 10:33N 47°24' W 122°23'10 9.6
2014-Aug-20 09:33N 47°33' W 122°27'4 4.4
2014-Aug-20 08:33N 47°35' W 122°21'0 0.0
2014-Aug-20 07:33N 47°35' W 122°21'0 0.0
2014-Aug-20 06:33N 47°35' W 122°21'0 0.0
2014-Aug-20 05:33N 47°35' W 122°21'0 0.0
2014-Aug-20 04:33N 47°35' W 122°21'0 0.0
2014-Aug-20 03:33N 47°35' W 122°21'0 0.0
2014-Aug-20 02:32N 47°35' W 122°21'0 0.0
2014-Aug-20 01:33N 47°35' W 122°21'0 0.0
2014-Aug-20 00:33N 47°35' W 122°21'0 0.0
2014-Aug-19 23:33N 47°35' W 122°21'0 0.0
2014-Aug-19 22:33N 47°35' W 122°21'0 0.0
2014-Aug-19 21:33N 47°35' W 122°21'0 0.0
2014-Aug-19 20:33N 47°35' W 122°21'0 0.0
2014-Aug-19 19:33N 47°35' W 122°21'0 0.0
2014-Aug-19 18:33N 47°35' W 122°21'0 0.0
2014-Aug-19 17:33N 47°35' W 122°21'0 0.0
2014-Aug-19 16:33N 47°35' W 122°21'0 0.0
2014-Aug-19 15:33N 47°35' W 122°21'0 0.0
2014-Aug-19 14:33N 47°35' W 122°21'1 0.5
2014-Aug-19 13:33N 47°35' W 122°21'2 1.7
2014-Aug-19 12:33N 47°37' W 122°22'8 8.1
2014-Aug-19 11:33N 47°29' W 122°24'1010.0
2014-Aug-19 10:33N 47°19' W 122°27'4 3.9
2014-Aug-19 09:33N 47°16' W 122°23'0 0.1
2014-Aug-19 08:33N 47°16' W 122°23'0 0.0
2014-Aug-19 07:33N 47°16' W 122°23'0 0.0
2014-Aug-19 06:33N 47°16' W 122°23'0 0.0
2014-Aug-19 05:33N 47°16' W 122°23'0 0.0
2014-Aug-19 04:33N 47°16' W 122°23'1 1.1
2014-Aug-19 03:33N 47°16' W 122°24'0 0.4
2014-Aug-19 02:31N 47°16' W 122°24'0 0.4
2014-Aug-19 01:33N 47°16' W 122°23'1 0.6
2014-Aug-19 00:30N 47°16' W 122°24'2 1.9
2014-Aug-18 23:33N 47°18' W 122°26'0 0.0
2014-Aug-18 22:33N 47°18' W 122°26'  

Dump ship's entire track history